createdAt,value
2022-10-17T04:01:59.290Z,3.40
2022-10-17T04:06:03.187Z,2.88
2022-10-17T04:10:09.160Z,2.90
2022-10-17T04:14:12.159Z,2.80
2022-10-17T04:18:16.962Z,2.85
2022-10-17T04:22:19.618Z,2.70
2022-10-17T04:26:22.862Z,3.13
2022-10-17T04:30:25.582Z,2.90
2022-10-17T04:34:29.650Z,2.80
2022-10-17T04:38:33.610Z,2.70
2022-10-17T04:42:36.356Z,2.40
2022-10-17T04:46:40.037Z,2.70
2022-10-17T04:50:54.552Z,2.92
2022-10-17T04:55:08.653Z,2.70
2022-10-17T04:59:11.833Z,2.95
2022-10-17T05:03:16.274Z,2.67
2022-10-17T05:07:20.284Z,2.95
2022-10-17T05:11:31.026Z,3.75
2022-10-17T05:15:34.321Z,3.67
2022-10-17T05:19:38.032Z,3.53
2022-10-17T05:23:45.661Z,3.53
2022-10-17T05:27:48.603Z,3.50
2022-10-17T05:31:51.455Z,3.00
2022-10-17T05:35:55.125Z,3.60
2022-10-17T05:44:05.363Z,4.05
2022-10-17T05:48:17.599Z,3.70
2022-10-17T05:56:42.553Z,2.90
2022-10-17T06:04:49.987Z,3.05
2022-10-17T06:08:54.475Z,2.75
2022-10-17T06:13:04.044Z,2.88
2022-10-17T06:17:06.804Z,2.88
2022-10-17T06:21:11.224Z,2.93
2022-10-17T06:25:18.601Z,2.88
2022-10-17T06:29:22.978Z,3.65
2022-10-17T06:33:28.279Z,6.07
2022-10-17T06:37:35.598Z,5.27
2022-10-17T06:41:43.714Z,4.47
2022-10-17T06:45:48.411Z,3.08
2022-10-17T06:49:54.234Z,3.47
2022-10-17T06:54:19.875Z,3.20
2022-10-17T06:58:25.345Z,2.83
2022-10-17T07:02:39.005Z,2.88
2022-10-17T07:06:41.670Z,2.60
2022-10-17T07:10:51.672Z,2.65
2022-10-17T07:14:54.313Z,2.78
2022-10-17T07:18:58.516Z,3.23
2022-10-17T07:23:01.184Z,3.00
2022-10-17T07:27:04.265Z,2.78
2022-10-17T07:31:08.648Z,2.60
2022-10-17T07:35:14.117Z,2.67
2022-10-17T07:39:17.801Z,2.70
2022-10-17T07:43:21.643Z,2.85
2022-10-17T07:47:24.321Z,2.47
2022-10-17T07:51:29.855Z,2.70
2022-10-17T07:55:32.459Z,2.00
2022-10-17T07:59:35.848Z,2.60
2022-10-17T08:07:42.200Z,2.50
2022-10-17T08:11:44.935Z,2.10
2022-10-17T08:15:47.955Z,2.08
2022-10-17T08:19:50.567Z,2.25
2022-10-17T08:23:55.079Z,2.33
2022-10-17T08:27:58.914Z,2.42
2022-10-17T08:32:02.465Z,2.20
2022-10-17T08:36:07.301Z,2.22
2022-10-17T08:40:19.883Z,2.28
2022-10-17T08:44:34.423Z,2.20
2022-10-17T08:48:44.085Z,2.13
2022-10-17T08:52:53.440Z,2.13
2022-10-17T08:56:58.192Z,2.22
2022-10-17T09:01:12.903Z,2.30
2022-10-17T09:05:30.467Z,2.10
2022-10-17T09:09:40.689Z,2.67
2022-10-17T09:13:58.251Z,2.30
2022-10-17T09:18:03.368Z,2.25
2022-10-17T09:22:11.315Z,2.13
2022-10-17T09:26:14.183Z,2.30
2022-10-17T09:30:44.182Z,2.33
2022-10-17T09:34:48.091Z,2.00
2022-10-17T09:38:54.062Z,2.35
2022-10-17T09:42:56.684Z,2.17
2022-10-17T09:47:24.188Z,2.08
2022-10-17T09:51:27.610Z,2.30
2022-10-17T09:55:38.479Z,2.78
2022-10-17T09:59:43.595Z,2.08
2022-10-17T10:03:47.784Z,2.33
2022-10-17T10:08:03.634Z,2.30
2022-10-17T10:12:17.705Z,2.13
2022-10-17T10:16:24.429Z,2.20
2022-10-17T10:20:32.288Z,2.22
2022-10-17T10:24:34.891Z,2.50
2022-10-17T10:28:38.582Z,1.95
2022-10-17T10:32:41.333Z,2.17
2022-10-17T10:36:49.251Z,2.35
2022-10-17T10:40:54.974Z,1.92
2022-10-17T10:45:02.386Z,2.20
2022-10-17T10:49:05.034Z,2.30
2022-10-17T10:53:24.851Z,2.33
2022-10-17T10:57:31.827Z,2.40
2022-10-17T11:01:40.187Z,2.08
2022-10-17T11:05:47.304Z,2.13
2022-10-17T11:09:57.231Z,2.50
2022-10-17T11:14:04.414Z,2.35
2022-10-17T11:18:10.597Z,1.90
2022-10-17T11:22:17.169Z,1.85
2022-10-17T11:26:27.020Z,2.30
2022-10-17T11:30:38.212Z,2.10
2022-10-17T11:34:45.125Z,2.20
2022-10-17T11:38:51.941Z,2.33
2022-10-17T11:43:00.990Z,1.70
2022-10-17T11:47:12.393Z,2.00
2022-10-17T11:55:39.484Z,1.83
2022-10-17T11:59:55.876Z,2.03
2022-10-17T12:04:17.906Z,2.10
2022-10-17T12:08:29.217Z,2.08
2022-10-17T12:12:35.573Z,1.80
2022-10-17T12:16:48.343Z,1.80
2022-10-17T12:20:57.616Z,1.75
2022-10-17T12:25:02.687Z,2.08
2022-10-17T12:29:05.491Z,1.75
2022-10-17T12:38:01.575Z,1.80
2022-10-17T12:42:04.242Z,1.55
2022-10-17T12:46:09.267Z,1.73
2022-10-17T12:50:51.030Z,1.50
2022-10-17T12:55:11.632Z,1.85
2022-10-17T12:59:18.651Z,1.73
2022-10-17T13:03:24.395Z,1.80
2022-10-17T13:07:27.452Z,1.67
2022-10-17T13:11:34.583Z,1.75
2022-10-17T13:15:38.204Z,1.83
2022-10-17T13:19:43.666Z,1.77
2022-10-17T13:23:47.650Z,1.90
2022-10-17T13:27:53.901Z,1.98
2022-10-17T13:32:01.087Z,1.88
2022-10-17T13:36:07.309Z,1.90
2022-10-17T13:40:37.557Z,1.85
2022-10-17T13:44:43.441Z,1.83
2022-10-17T13:48:46.226Z,2.03
2022-10-17T13:52:48.851Z,1.80
2022-10-17T13:56:57.327Z,1.65
2022-10-17T14:01:01.703Z,1.95
2022-10-17T14:05:17.387Z,2.00
2022-10-17T14:09:24.525Z,1.67
2022-10-17T14:13:30.106Z,1.70
2022-10-17T14:17:34.944Z,1.80
2022-10-17T14:21:44.374Z,1.70
2022-10-17T14:25:47.502Z,1.80
2022-10-17T14:29:55.100Z,1.60
2022-10-17T14:34:02.612Z,1.92
2022-10-17T14:38:07.193Z,2.15
2022-10-17T14:42:19.712Z,1.90
2022-10-17T14:46:22.592Z,1.80
2022-10-17T14:54:30.398Z,2.17
2022-10-17T14:58:34.619Z,2.00
2022-10-17T15:02:37.220Z,1.83
2022-10-17T15:06:41.355Z,2.00
2022-10-17T15:10:44.781Z,1.90
2022-10-17T15:14:48.444Z,1.95
2022-10-17T15:18:51.691Z,1.70
2022-10-17T15:22:56.403Z,2.28
2022-10-17T15:26:59.005Z,1.92
2022-10-17T15:31:01.648Z,2.30
2022-10-17T15:35:04.439Z,2.13
2022-10-17T15:39:08.833Z,1.70
2022-10-17T15:43:11.413Z,1.90
2022-10-17T15:47:23.186Z,2.10
2022-10-17T15:51:25.806Z,2.20
2022-10-17T15:55:29.840Z,2.20
2022-10-17T15:59:35.651Z,2.30
2022-10-17T16:03:38.253Z,1.90
2022-10-17T16:07:40.864Z,1.90
2022-10-17T16:11:45.502Z,2.63
2022-10-17T16:15:48.142Z,2.15
2022-10-17T16:19:50.759Z,2.50
2022-10-17T16:23:53.700Z,2.20
2022-10-17T16:32:00.727Z,2.40
2022-10-17T16:36:03.363Z,2.22
2022-10-17T16:40:07.222Z,2.40
2022-10-17T16:44:14.518Z,2.10
2022-10-17T16:48:17.654Z,2.97
2022-10-17T16:52:20.328Z,2.35
2022-10-17T16:56:25.396Z,2.50
2022-10-17T17:00:29.462Z,2.33
2022-10-17T17:04:33.379Z,2.38
2022-10-17T17:08:40.579Z,2.55
2022-10-17T17:12:43.465Z,2.80
2022-10-17T17:16:47.511Z,2.80
2022-10-17T17:20:50.259Z,2.63
2022-10-17T17:24:52.945Z,2.78
2022-10-17T17:28:57.692Z,2.80
2022-10-17T17:33:01.767Z,2.97
2022-10-17T17:37:04.486Z,2.70
2022-10-17T17:41:07.118Z,3.28
2022-10-17T17:45:10.698Z,2.80
2022-10-17T17:49:15.104Z,3.00
2022-10-17T17:53:18.801Z,2.70
2022-10-17T17:57:21.397Z,2.40
2022-10-17T18:01:26.262Z,3.35
2022-10-17T18:05:30.439Z,3.33
2022-10-17T18:09:33.119Z,3.28
2022-10-17T18:13:35.715Z,2.83
2022-10-17T18:17:38.426Z,3.20
2022-10-17T18:21:42.972Z,3.45
2022-10-17T18:25:54.636Z,3.58
2022-10-17T18:29:57.411Z,3.50
2022-10-17T18:34:00.991Z,3.00
2022-10-17T18:38:05.005Z,3.25
2022-10-17T18:42:09.915Z,3.38
2022-10-17T18:46:15.265Z,3.25
2022-10-17T18:50:17.996Z,3.10
2022-10-17T18:54:24.297Z,3.25
2022-10-17T18:58:27.094Z,3.42
2022-10-17T19:02:33.166Z,3.17
2022-10-17T19:06:38.700Z,3.40
2022-10-17T19:10:46.028Z,3.55
2022-10-17T19:14:50.560Z,3.20
2022-10-17T19:18:54.761Z,3.75
2022-10-17T19:22:57.356Z,3.20
2022-10-17T19:27:02.555Z,4.05
2022-10-17T19:31:06.907Z,3.53
2022-10-17T19:35:11.171Z,3.30
2022-10-17T19:39:16.159Z,3.80
2022-10-17T19:43:20.530Z,4.15
2022-10-17T19:47:23.155Z,4.60
2022-10-17T19:51:26.552Z,5.88
2022-10-17T19:55:29.219Z,4.90
2022-10-17T19:59:33.210Z,5.55
2022-10-17T20:03:35.885Z,4.82
2022-10-17T20:07:38.613Z,5.03
2022-10-17T20:11:41.501Z,4.65
2022-10-17T20:15:54.888Z,4.50
2022-10-17T20:19:57.507Z,4.70
2022-10-17T20:24:00.779Z,5.20
2022-10-17T20:32:07.518Z,7.10
2022-10-17T20:36:12.386Z,5.07
2022-10-17T20:40:35.208Z,6.07
2022-10-17T20:44:37.711Z,4.60
2022-10-17T20:48:41.657Z,4.70
2022-10-17T20:52:44.251Z,4.35
2022-10-17T20:56:46.861Z,6.68
